Time,TemperatureF,DewpointF,PressureIn,WindDirection,WindDirectionDegrees,WindSpeedMPH,WindSpeedGustMPH,Humidity,HourlyPrecipIn,Conditions,Clouds,dailyrainin,SoftwareType,DateUTC
2015-08-30 00:13:00,74.4,73.0,29.98,East,88,8.0,9.0,94,0.00,,,0.00,weatherlink.com 1.10,2015-08-30 04:13:00,
2015-08-30 00:28:00,74.4,73.0,29.98,East,86,1.0,5.0,94,0.00,,,0.00,weatherlink.com 1.10,2015-08-30 04:28:00,
2015-08-30 00:43:00,74.2,73.0,29.97,East,83,4.0,7.0,95,0.00,,,0.00,weatherlink.com 1.10,2015-08-30 04:43:00,
2015-08-30 00:58:00,74.0,73.0,29.96,ENE,60,4.0,7.0,95,0.00,,,0.00,weatherlink.com 1.10,2015-08-30 04:58:00,
2015-08-30 01:14:00,74.1,73.0,29.96,East,94,4.0,6.0,95,0.00,,,0.00,weatherlink.com 1.10,2015-08-30 05:14:00,
2015-08-30 01:29:00,74.2,73.0,29.96,East,80,1.0,3.0,95,0.00,,,0.00,weatherlink.com 1.10,2015-08-30 05:29:00,
2015-08-30 01:44:00,74.2,73.0,29.96,East,90,3.0,4.0,95,0.00,,,0.00,weatherlink.com 1.10,2015-08-30 05:44:00,
2015-08-30 01:59:00,74.5,73.0,29.96,East,79,1.0,5.0,95,0.00,,,0.00,weatherlink.com 1.10,2015-08-30 05:59:00,
2015-08-30 02:14:00,74.8,73.0,29.96,East,92,2.0,3.0,94,0.00,,,0.00,weatherlink.com 1.10,2015-08-30 06:14:00,
2015-08-30 02:29:00,75.1,73.0,29.96,East,86,1.0,6.0,94,0.00,,,0.00,weatherlink.com 1.10,2015-08-30 06:29:00,
2015-08-30 02:44:00,75.2,73.0,29.95,ENE,75,3.0,6.0,94,0.00,,,0.00,weatherlink.com 1.10,2015-08-30 06:44:00,
2015-08-30 02:59:00,75.4,73.0,29.94,East,88,4.0,8.0,93,0.00,,,0.00,weatherlink.com 1.10,2015-08-30 06:59:00,
2015-08-30 03:14:00,75.5,73.0,29.93,ENE,66,4.0,8.0,93,0.00,,,0.00,weatherlink.com 1.10,2015-08-30 07:14:00,
2015-08-30 03:29:00,75.7,73.0,29.93,ENE,65,6.0,7.0,92,0.00,,,0.00,weatherlink.com 1.10,2015-08-30 07:29:00,
2015-08-30 03:44:00,75.7,74.0,29.93,East,83,4.0,8.0,93,0.00,,,0.00,weatherlink.com 1.10,2015-08-30 07:44:00,
2015-08-30 03:59:00,75.9,74.0,29.93,East,83,7.0,9.0,93,0.00,,,0.00,weatherlink.com 1.10,2015-08-30 07:59:00,
2015-08-30 04:14:00,76.0,74.0,29.93,East,84,5.0,10.0,93,0.00,,,0.00,weatherlink.com 1.10,2015-08-30 08:14:00,
2015-08-30 04:29:00,76.0,74.0,29.93,ENE,78,4.0,10.0,93,0.00,,,0.00,weatherlink.com 1.10,2015-08-30 08:29:00,
2015-08-30 04:44:00,75.8,74.0,29.93,ENE,78,3.0,9.0,93,0.00,,,0.00,weatherlink.com 1.10,2015-08-30 08:44:00,
2015-08-30 04:59:00,75.8,74.0,29.93,East,97,7.0,9.0,94,0.00,,,0.00,weatherlink.com 1.10,2015-08-30 08:59:00,
2015-08-30 05:14:00,75.8,74.0,29.93,East,81,4.0,9.0,94,0.00,,,0.00,weatherlink.com 1.10,2015-08-30 09:14:00,
2015-08-30 05:29:00,75.8,74.0,29.94,East,80,3.0,8.0,94,0.00,,,0.00,weatherlink.com 1.10,2015-08-30 09:29:00,
2015-08-30 05:44:00,75.8,74.0,29.94,ENE,77,5.0,8.0,94,0.00,,,0.00,weatherlink.com 1.10,2015-08-30 09:44:00,
2015-08-30 05:59:00,75.8,74.0,29.94,NE,55,2.0,8.0,94,0.00,,,0.00,weatherlink.com 1.10,2015-08-30 09:59:00,
2015-08-30 06:14:00,75.7,74.0,29.94,East,84,4.0,4.0,95,0.00,,,0.00,weatherlink.com 1.10,2015-08-30 10:14:00,
2015-08-30 06:29:00,75.6,74.0,29.94,NE,39,0.0,3.0,95,0.00,,,0.00,weatherlink.com 1.10,2015-08-30 10:29:00,
2015-08-30 06:44:00,75.5,74.0,29.94,NE,39,1.0,3.0,95,0.00,,,0.00,weatherlink.com 1.10,2015-08-30 10:44:00,
2015-08-30 06:59:00,75.5,74.0,29.95,East,87,3.0,5.0,95,0.00,,,0.00,weatherlink.com 1.10,2015-08-30 10:59:00,
2015-08-30 07:14:00,75.5,74.0,29.95,East,92,0.0,4.0,96,0.00,,,0.00,weatherlink.com 1.10,2015-08-30 11:14:00,
2015-08-30 07:29:00,75.4,74.0,29.96,East,92,0.0,3.0,96,0.00,,,0.00,weatherlink.com 1.10,2015-08-30 11:29:00,
2015-08-30 07:44:00,75.5,74.0,29.96,NE,49,1.0,5.0,96,0.00,,,0.00,weatherlink.com 1.10,2015-08-30 11:44:00,
2015-08-30 07:59:00,75.6,74.0,29.97,East,101,1.0,3.0,96,0.00,,,0.00,weatherlink.com 1.10,2015-08-30 11:59:00,
2015-08-30 08:14:00,75.8,75.0,29.97,NE,56,1.0,4.0,96,0.00,,,0.00,weatherlink.com 1.10,2015-08-30 12:14:00,
2015-08-30 08:29:00,76.2,75.0,29.97,ENE,65,2.0,6.0,96,0.00,,,0.00,weatherlink.com 1.10,2015-08-30 12:29:00,
2015-08-30 08:44:00,76.8,75.0,29.96,NNE,24,6.0,6.0,95,0.00,,,0.00,weatherlink.com 1.10,2015-08-30 12:44:00,
2015-08-30 08:59:00,77.4,76.0,29.96,ENE,78,1.0,4.0,94,0.00,,,0.00,weatherlink.com 1.10,2015-08-30 12:59:00,
2015-08-30 09:14:00,77.8,76.0,29.97,NNE,24,0.0,5.0,94,0.00,,,0.00,weatherlink.com 1.10,2015-08-30 13:14:00,
2015-08-30 09:29:00,78.0,76.0,29.98,NE,39,0.0,4.0,93,0.00,,,0.00,weatherlink.com 1.10,2015-08-30 13:29:00,
2015-08-30 09:44:00,78.2,76.0,29.98,East,86,2.0,4.0,94,0.00,,,0.00,weatherlink.com 1.10,2015-08-30 13:44:00,
2015-08-30 09:59:00,78.6,77.0,29.99,NE,34,3.0,5.0,93,0.00,,,0.00,weatherlink.com 1.10,2015-08-30 13:59:00,
2015-08-30 10:14:00,79.1,77.0,29.99,NE,39,2.0,5.0,92,0.00,,,0.00,weatherlink.com 1.10,2015-08-30 14:14:00,
2015-08-30 10:29:00,79.5,77.0,30.00,ENE,69,4.0,7.0,92,0.00,,,0.00,weatherlink.com 1.10,2015-08-30 14:29:00,
2015-08-30 10:44:00,80.5,77.0,30.00,NNE,32,4.0,6.0,90,0.00,,,0.00,weatherlink.com 1.10,2015-08-30 14:44:00,
2015-08-30 10:59:00,81.4,78.0,30.00,ENE,73,4.0,7.0,89,0.00,,,0.00,weatherlink.com 1.10,2015-08-30 14:59:00,
2015-08-30 11:14:00,82.4,78.0,30.01,East,95,2.0,7.0,87,0.00,,,0.00,weatherlink.com 1.10,2015-08-30 15:14:00,
2015-08-30 11:30:00,83.0,78.0,30.01,SE,136,5.0,10.0,84,0.00,,,0.00,weatherlink.com 1.10,2015-08-30 15:30:00,
2015-08-30 11:45:00,83.5,78.0,30.01,ESE,109,8.0,9.0,82,0.00,,,0.00,weatherlink.com 1.10,2015-08-30 15:45:00,
2015-08-30 12:00:00,84.0,78.0,30.00,SE,139,3.0,10.0,81,0.00,,,0.00,weatherlink.com 1.10,2015-08-30 16:00:00,
2015-08-30 12:15:00,84.2,78.0,30.01,ESE,118,4.0,8.0,82,0.00,,,0.00,weatherlink.com 1.10,2015-08-30 16:15:00,
2015-08-30 12:45:00,85.4,79.0,30.00,ESE,108,0.0,10.0,80,0.00,,,0.00,weatherlink.com 1.10,2015-08-30 16:45:00,
2015-08-30 13:00:00,85.5,79.0,30.00,ESE,104,7.0,8.0,80,0.00,,,0.00,weatherlink.com 1.10,2015-08-30 17:00:00,
2015-08-30 13:15:00,85.4,78.0,29.99,SE,128,2.0,10.0,78,0.00,,,0.00,weatherlink.com 1.10,2015-08-30 17:15:00,
2015-08-30 13:45:00,86.0,78.0,29.98,ESE,108,4.0,7.0,77,0.00,,,0.00,weatherlink.com 1.10,2015-08-30 17:45:00,
2015-08-30 14:00:00,86.1,78.0,29.98,SE,140,2.0,8.0,77,0.00,,,0.00,weatherlink.com 1.10,2015-08-30 18:00:00,
2015-08-30 14:15:00,85.6,78.0,29.98,East,97,4.0,9.0,77,0.00,,,0.00,weatherlink.com 1.10,2015-08-30 18:15:00,
2015-08-30 14:30:00,86.1,78.0,29.97,ESE,105,2.0,7.0,76,0.00,,,0.00,weatherlink.com 1.10,2015-08-30 18:30:00,
2015-08-30 14:45:00,86.6,77.0,29.96,ESE,113,4.0,9.0,74,0.00,,,0.00,weatherlink.com 1.10,2015-08-30 18:45:00,
2015-08-30 15:00:00,86.9,78.0,29.96,SE,142,3.0,8.0,74,0.00,,,0.00,weatherlink.com 1.10,2015-08-30 19:00:00,
2015-08-30 15:15:00,87.1,78.0,29.95,SSE,153,0.0,9.0,73,0.00,,,0.00,weatherlink.com 1.10,2015-08-30 19:15:00,
2015-08-30 15:30:00,87.5,77.0,29.94,South,171,2.0,6.0,72,0.00,,,0.00,weatherlink.com 1.10,2015-08-30 19:30:00,
2015-08-30 15:45:00,87.7,77.0,29.93,ESE,115,2.0,6.0,70,0.00,,,0.00,weatherlink.com 1.10,2015-08-30 19:45:00,
2015-08-30 16:00:00,87.8,77.0,29.93,ESE,105,6.0,6.0,70,0.00,,,0.00,weatherlink.com 1.10,2015-08-30 20:00:00,
2015-08-30 16:15:00,87.5,78.0,29.93,ESE,109,3.0,8.0,73,0.00,,,0.00,weatherlink.com 1.10,2015-08-30 20:15:00,
2015-08-30 16:30:00,87.1,78.0,29.93,SE,141,1.0,7.0,74,0.00,,,0.00,weatherlink.com 1.10,2015-08-30 20:30:00,
2015-08-30 16:45:00,87.2,78.0,29.93,SE,134,1.0,7.0,73,0.00,,,0.00,weatherlink.com 1.10,2015-08-30 20:45:00,
2015-08-30 17:00:00,87.6,78.0,29.93,East,94,2.0,6.0,72,0.00,,,0.00,weatherlink.com 1.10,2015-08-30 21:00:00,
2015-08-30 17:15:00,87.4,78.0,29.94,SE,140,2.0,5.0,73,0.00,,,0.00,weatherlink.com 1.10,2015-08-30 21:15:00,
2015-08-30 17:30:00,87.0,78.0,29.94,SE,142,3.0,5.0,74,0.00,,,0.00,weatherlink.com 1.10,2015-08-30 21:30:00,
2015-08-30 17:45:00,87.0,77.0,29.94,ENE,77,4.0,6.0,73,0.00,,,0.00,weatherlink.com 1.10,2015-08-30 21:45:00,
2015-08-30 18:00:00,87.2,78.0,29.94,ESE,112,1.0,7.0,74,0.00,,,0.00,weatherlink.com 1.10,2015-08-30 22:00:00,
2015-08-30 18:15:00,86.9,78.0,29.94,ESE,115,4.0,5.0,75,0.00,,,0.00,weatherlink.com 1.10,2015-08-30 22:15:00,
2015-08-30 18:30:00,82.7,78.0,29.95,South,187,2.0,7.0,86,0.02,,,0.02,weatherlink.com 1.10,2015-08-30 22:30:00,
2015-08-30 18:45:00,80.2,77.0,29.95,ESE,109,3.0,12.0,91,0.02,,,0.02,weatherlink.com 1.10,2015-08-30 22:45:00,
2015-08-30 19:00:00,78.7,77.0,29.95,East,92,4.0,8.0,94,0.04,,,0.04,weatherlink.com 1.10,2015-08-30 23:00:00,
2015-08-30 19:15:00,78.1,77.0,29.96,East,86,3.0,8.0,95,0.04,,,0.04,weatherlink.com 1.10,2015-08-30 23:15:00,
2015-08-30 19:30:00,77.9,76.0,29.96,SE,125,0.0,6.0,94,0.02,,,0.04,weatherlink.com 1.10,2015-08-30 23:30:00,
2015-08-30 19:45:00,77.7,76.0,29.96,ESE,118,0.0,5.0,94,0.02,,,0.04,weatherlink.com 1.10,2015-08-30 23:45:00,
2015-08-30 20:00:00,77.5,76.0,29.95,SE,138,1.0,3.0,94,0.00,,,0.04,weatherlink.com 1.10,2015-08-31 00:00:00,
2015-08-30 20:15:00,77.4,76.0,29.95,SE,138,0.0,1.0,95,0.00,,,0.04,weatherlink.com 1.10,2015-08-31 00:15:00,
2015-08-30 20:30:00,77.4,76.0,29.95,SE,138,1.0,1.0,96,0.00,,,0.04,weatherlink.com 1.10,2015-08-31 00:30:00,
2015-08-30 20:45:00,77.4,76.0,29.96,SE,138,1.0,3.0,95,0.00,,,0.04,weatherlink.com 1.10,2015-08-31 00:45:00,